sensor_id;sensor_type;location;lat;lon;timestamp;P1;durP1;ratioP1;P2;durP2;ratioP2
10717;SDS011;13513;42.700;23.124;2023-04-08T00:01:06;18.37;;;11.73;;
10717;SDS011;13513;42.700;23.124;2023-04-08T00:03:37;17.33;;;12.87;;
10717;SDS011;13513;42.700;23.124;2023-04-08T00:06:09;17.13;;;12.90;;
10717;SDS011;13513;42.700;23.124;2023-04-08T00:08:39;19.33;;;13.70;;
10717;SDS011;13513;42.700;23.124;2023-04-08T00:11:10;15.57;;;12.67;;
10717;SDS011;13513;42.700;23.124;2023-04-08T00:13:40;17.47;;;12.20;;
10717;SDS011;13513;42.700;23.124;2023-04-08T00:16:12;10.47;;;8.03;;
10717;SDS011;13513;42.700;23.124;2023-04-08T00:18:43;10.50;;;8.60;;
10717;SDS011;13513;42.700;23.124;2023-04-08T00:21:14;10.77;;;7.87;;
10717;SDS011;13513;42.700;23.124;2023-04-08T00:23:45;12.30;;;8.57;;
10717;SDS011;13513;42.700;23.124;2023-04-08T00:26:16;12.17;;;9.67;;
10717;SDS011;13513;42.700;23.124;2023-04-08T00:28:47;10.77;;;8.73;;
10717;SDS011;13513;42.700;23.124;2023-04-08T00:31:18;12.77;;;9.83;;
10717;SDS011;13513;42.700;23.124;2023-04-08T00:33:50;15.30;;;11.03;;
10717;SDS011;13513;42.700;23.124;2023-04-08T00:36:21;20.23;;;12.17;;
10717;SDS011;13513;42.700;23.124;2023-04-08T00:38:52;19.57;;;12.90;;
10717;SDS011;13513;42.700;23.124;2023-04-08T00:41:23;17.27;;;12.60;;
10717;SDS011;13513;42.700;23.124;2023-04-08T00:43:54;14.87;;;12.17;;
10717;SDS011;13513;42.700;23.124;2023-04-08T00:46:25;14.40;;;11.60;;
10717;SDS011;13513;42.700;23.124;2023-04-08T00:48:55;15.80;;;12.07;;
10717;SDS011;13513;42.700;23.124;2023-04-08T00:51:31;17.40;;;11.97;;
10717;SDS011;13513;42.700;23.124;2023-04-08T00:53:58;16.30;;;12.77;;
10717;SDS011;13513;42.700;23.124;2023-04-08T00:56:33;17.33;;;12.67;;
10717;SDS011;13513;42.700;23.124;2023-04-08T00:59:03;23.63;;;15.43;;
10717;SDS011;13513;42.700;23.124;2023-04-08T01:04:59;22.50;;;15.87;;
10717;SDS011;13513;42.700;23.124;2023-04-08T01:06:50;66.33;;;35.70;;
10717;SDS011;13513;42.700;23.124;2023-04-08T01:09:31;59.83;;;35.10;;
10717;SDS011;13513;42.700;23.124;2023-04-08T01:12:05;38.00;;;23.33;;
10717;SDS011;13513;42.700;23.124;2023-04-08T01:14:38;28.03;;;17.97;;
10717;SDS011;13513;42.700;23.124;2023-04-08T01:17:09;16.30;;;12.70;;
10717;SDS011;13513;42.700;23.124;2023-04-08T01:19:40;17.00;;;13.37;;
10717;SDS011;13513;42.700;23.124;2023-04-08T01:22:26;15.83;;;12.47;;
10717;SDS011;13513;42.700;23.124;2023-04-08T01:25:00;15.73;;;12.33;;
10717;SDS011;13513;42.700;23.124;2023-04-08T01:27:33;14.53;;;11.50;;
10717;SDS011;13513;42.700;23.124;2023-04-08T01:30:07;14.70;;;11.80;;
10717;SDS011;13513;42.700;23.124;2023-04-08T01:32:39;15.17;;;12.17;;
10717;SDS011;13513;42.700;23.124;2023-04-08T01:35:11;17.83;;;14.00;;
10717;SDS011;13513;42.700;23.124;2023-04-08T01:37:44;21.00;;;16.07;;
10717;SDS011;13513;42.700;23.124;2023-04-08T01:40:16;20.97;;;15.53;;
10717;SDS011;13513;42.700;23.124;2023-04-08T01:42:47;24.07;;;15.43;;
10717;SDS011;13513;42.700;23.124;2023-04-08T01:45:20;22.33;;;16.77;;
10717;SDS011;13513;42.700;23.124;2023-04-08T01:47:52;22.93;;;17.00;;
10717;SDS011;13513;42.700;23.124;2023-04-08T01:50:25;20.60;;;15.00;;
10717;SDS011;13513;42.700;23.124;2023-04-08T01:52:57;23.40;;;15.40;;
10717;SDS011;13513;42.700;23.124;2023-04-08T01:55:29;20.43;;;15.50;;
10717;SDS011;13513;42.700;23.124;2023-04-08T01:58:01;20.07;;;15.30;;
10717;SDS011;13513;42.700;23.124;2023-04-08T02:00:35;18.60;;;15.07;;
10717;SDS011;13513;42.700;23.124;2023-04-08T02:03:06;20.23;;;15.37;;
10717;SDS011;13513;42.700;23.124;2023-04-08T02:05:40;21.10;;;14.80;;
10717;SDS011;13513;42.700;23.124;2023-04-08T02:08:11;19.87;;;15.23;;
10717;SDS011;13513;42.700;23.124;2023-04-08T02:10:40;19.67;;;14.90;;
10717;SDS011;13513;42.700;23.124;2023-04-08T02:13:11;20.13;;;15.77;;
10717;SDS011;13513;42.700;23.124;2023-04-08T02:15:43;22.37;;;15.93;;
10717;SDS011;13513;42.700;23.124;2023-04-08T02:18:23;21.23;;;15.77;;
10717;SDS011;13513;42.700;23.124;2023-04-08T02:20:50;19.77;;;14.17;;
10717;SDS011;13513;42.700;23.124;2023-04-08T02:23:22;20.80;;;15.37;;
10717;SDS011;13513;42.700;23.124;2023-04-08T02:25:54;21.50;;;14.53;;
10717;SDS011;13513;42.700;23.124;2023-04-08T02:28:28;19.93;;;14.90;;
10717;SDS011;13513;42.700;23.124;2023-04-08T02:31:00;19.43;;;15.10;;
10717;SDS011;13513;42.700;23.124;2023-04-08T02:33:34;19.13;;;15.07;;
10717;SDS011;13513;42.700;23.124;2023-04-08T02:36:08;20.33;;;16.27;;
10717;SDS011;13513;42.700;23.124;2023-04-08T02:38:39;20.07;;;15.93;;
10717;SDS011;13513;42.700;23.124;2023-04-08T02:41:10;22.23;;;16.13;;
10717;SDS011;13513;42.700;23.124;2023-04-08T02:43:41;21.70;;;16.00;;
10717;SDS011;13513;42.700;23.124;2023-04-08T02:46:12;19.63;;;15.50;;
10717;SDS011;13513;42.700;23.124;2023-04-08T02:48:42;20.57;;;15.13;;
10717;SDS011;13513;42.700;23.124;2023-04-08T02:51:13;19.77;;;15.27;;
10717;SDS011;13513;42.700;23.124;2023-04-08T02:53:45;18.40;;;15.63;;
10717;SDS011;13513;42.700;23.124;2023-04-08T02:56:16;22.87;;;15.93;;
10717;SDS011;13513;42.700;23.124;2023-04-08T02:58:46;23.63;;;16.70;;
10717;SDS011;13513;42.700;23.124;2023-04-08T03:01:19;20.10;;;15.60;;
10717;SDS011;13513;42.700;23.124;2023-04-08T03:03:50;23.50;;;17.23;;
10717;SDS011;13513;42.700;23.124;2023-04-08T03:06:24;23.50;;;16.73;;
10717;SDS011;13513;42.700;23.124;2023-04-08T03:08:55;20.17;;;13.90;;
10717;SDS011;13513;42.700;23.124;2023-04-08T03:11:25;18.00;;;13.40;;
10717;SDS011;13513;42.700;23.124;2023-04-08T03:13:56;20.43;;;14.13;;
10717;SDS011;13513;42.700;23.124;2023-04-08T03:16:27;18.80;;;14.50;;
10717;SDS011;13513;42.700;23.124;2023-04-08T03:18:58;20.07;;;15.07;;
10717;SDS011;13513;42.700;23.124;2023-04-08T03:21:29;20.27;;;15.73;;
10717;SDS011;13513;42.700;23.124;2023-04-08T03:24:00;19.77;;;16.10;;
10717;SDS011;13513;42.700;23.124;2023-04-08T03:26:31;21.40;;;16.37;;
10717;SDS011;13513;42.700;23.124;2023-04-08T03:29:01;20.03;;;16.13;;
10717;SDS011;13513;42.700;23.124;2023-04-08T03:31:32;21.83;;;16.70;;
10717;SDS011;13513;42.700;23.124;2023-04-08T03:34:03;21.33;;;16.57;;
10717;SDS011;13513;42.700;23.124;2023-04-08T03:36:33;19.83;;;15.73;;
10717;SDS011;13513;42.700;23.124;2023-04-08T03:39:03;23.37;;;16.77;;
10717;SDS011;13513;42.700;23.124;2023-04-08T03:41:34;24.83;;;17.60;;
10717;SDS011;13513;42.700;23.124;2023-04-08T03:44:03;20.20;;;15.43;;
10717;SDS011;13513;42.700;23.124;2023-04-08T03:46:34;20.60;;;16.20;;
10717;SDS011;13513;42.700;23.124;2023-04-08T03:49:05;25.83;;;17.90;;
10717;SDS011;13513;42.700;23.124;2023-04-08T03:51:36;19.63;;;15.00;;
10717;SDS011;13513;42.700;23.124;2023-04-08T03:54:07;24.73;;;16.33;;
10717;SDS011;13513;42.700;23.124;2023-04-08T03:56:39;20.33;;;15.10;;
10717;SDS011;13513;42.700;23.124;2023-04-08T03:59:10;21.60;;;14.10;;
10717;SDS011;13513;42.700;23.124;2023-04-08T04:01:41;16.67;;;14.00;;
10717;SDS011;13513;42.700;23.124;2023-04-08T04:04:12;16.40;;;13.30;;
10717;SDS011;13513;42.700;23.124;2023-04-08T04:06:42;21.17;;;14.20;;
10717;SDS011;13513;42.700;23.124;2023-04-08T04:09:14;24.40;;;14.10;;
10717;SDS011;13513;42.700;23.124;2023-04-08T04:11:45;18.57;;;14.60;;
10717;SDS011;13513;42.700;23.124;2023-04-08T04:14:16;16.23;;;13.47;;
10717;SDS011;13513;42.700;23.124;2023-04-08T04:16:48;18.00;;;14.80;;
10717;SDS011;13513;42.700;23.124;2023-04-08T04:19:18;19.87;;;14.97;;
10717;SDS011;13513;42.700;23.124;2023-04-08T04:21:48;19.63;;;13.97;;
10717;SDS011;13513;42.700;23.124;2023-04-08T04:24:19;18.80;;;14.23;;
10717;SDS011;13513;42.700;23.124;2023-04-08T04:26:50;19.03;;;14.90;;
10717;SDS011;13513;42.700;23.124;2023-04-08T04:29:21;16.53;;;13.20;;
10717;SDS011;13513;42.700;23.124;2023-04-08T04:31:52;15.47;;;12.70;;
10717;SDS011;13513;42.700;23.124;2023-04-08T04:34:22;18.10;;;14.33;;
10717;SDS011;13513;42.700;23.124;2023-04-08T04:36:52;16.50;;;13.73;;
10717;SDS011;13513;42.700;23.124;2023-04-08T04:39:23;17.83;;;14.57;;
10717;SDS011;13513;42.700;23.124;2023-04-08T04:41:54;22.60;;;15.57;;
10717;SDS011;13513;42.700;23.124;2023-04-08T04:44:25;19.17;;;15.17;;
10717;SDS011;13513;42.700;23.124;2023-04-08T04:46:56;21.43;;;15.63;;
10717;SDS011;13513;42.700;23.124;2023-04-08T04:49:27;21.20;;;16.10;;
10717;SDS011;13513;42.700;23.124;2023-04-08T04:52:03;17.87;;;14.07;;
10717;SDS011;13513;42.700;23.124;2023-04-08T04:54:34;18.60;;;14.03;;
10717;SDS011;13513;42.700;23.124;2023-04-08T04:57:05;18.33;;;14.80;;
10717;SDS011;13513;42.700;23.124;2023-04-08T04:59:35;19.73;;;15.17;;
10717;SDS011;13513;42.700;23.124;2023-04-08T05:02:06;21.03;;;15.30;;
10717;SDS011;13513;42.700;23.124;2023-04-08T05:04:37;19.20;;;14.23;;
10717;SDS011;13513;42.700;23.124;2023-04-08T05:07:08;19.50;;;15.03;;
10717;SDS011;13513;42.700;23.124;2023-04-08T05:09:39;17.53;;;14.03;;
10717;SDS011;13513;42.700;23.124;2023-04-08T05:12:10;20.70;;;14.93;;
10717;SDS011;13513;42.700;23.124;2023-04-08T05:14:41;18.00;;;13.63;;
10717;SDS011;13513;42.700;23.124;2023-04-08T05:17:12;17.47;;;13.80;;
10717;SDS011;13513;42.700;23.124;2023-04-08T05:19:42;23.00;;;14.63;;
10717;SDS011;13513;42.700;23.124;2023-04-08T05:22:12;20.70;;;14.13;;
10717;SDS011;13513;42.700;23.124;2023-04-08T05:24:43;22.30;;;14.37;;
10717;SDS011;13513;42.700;23.124;2023-04-08T05:27:13;19.67;;;15.83;;
10717;SDS011;13513;42.700;23.124;2023-04-08T05:29:45;20.07;;;15.03;;
10717;SDS011;13513;42.700;23.124;2023-04-08T05:32:16;19.53;;;15.70;;
10717;SDS011;13513;42.700;23.124;2023-04-08T05:34:47;18.23;;;14.43;;
10717;SDS011;13513;42.700;23.124;2023-04-08T05:37:20;20.20;;;15.00;;
10717;SDS011;13513;42.700;23.124;2023-04-08T05:39:51;21.37;;;15.73;;
10717;SDS011;13513;42.700;23.124;2023-04-08T05:42:21;18.70;;;14.93;;
10717;SDS011;13513;42.700;23.124;2023-04-08T05:44:52;21.50;;;15.43;;
10717;SDS011;13513;42.700;23.124;2023-04-08T05:47:24;22.53;;;17.87;;
10717;SDS011;13513;42.700;23.124;2023-04-08T05:49:54;23.40;;;17.87;;
10717;SDS011;13513;42.700;23.124;2023-04-08T05:52:25;23.70;;;17.73;;
10717;SDS011;13513;42.700;23.124;2023-04-08T05:54:56;24.17;;;18.07;;
10717;SDS011;13513;42.700;23.124;2023-04-08T05:57:26;24.90;;;17.20;;
10717;SDS011;13513;42.700;23.124;2023-04-08T05:59:58;22.27;;;17.63;;
10717;SDS011;13513;42.700;23.124;2023-04-08T06:02:29;22.77;;;17.43;;
10717;SDS011;13513;42.700;23.124;2023-04-08T06:05:00;27.37;;;19.50;;
10717;SDS011;13513;42.700;23.124;2023-04-08T06:07:31;25.17;;;18.57;;
10717;SDS011;13513;42.700;23.124;2023-04-08T06:10:01;27.73;;;20.43;;
10717;SDS011;13513;42.700;23.124;2023-04-08T06:12:30;29.37;;;21.27;;
10717;SDS011;13513;42.700;23.124;2023-04-08T06:15:06;24.67;;;19.83;;
10717;SDS011;13513;42.700;23.124;2023-04-08T06:17:36;27.47;;;21.33;;
10717;SDS011;13513;42.700;23.124;2023-04-08T06:20:07;28.27;;;19.37;;
10717;SDS011;13513;42.700;23.124;2023-04-08T06:22:38;26.20;;;19.30;;
10717;SDS011;13513;42.700;23.124;2023-04-08T06:25:09;21.47;;;16.57;;
10717;SDS011;13513;42.700;23.124;2023-04-08T06:27:41;25.37;;;15.80;;
10717;SDS011;13513;42.700;23.124;2023-04-08T06:30:11;24.10;;;15.53;;
10717;SDS011;13513;42.700;23.124;2023-04-08T06:32:40;22.73;;;15.83;;
10717;SDS011;13513;42.700;23.124;2023-04-08T06:35:12;25.40;;;19.50;;
10717;SDS011;13513;42.700;23.124;2023-04-08T06:37:43;30.30;;;20.03;;
10717;SDS011;13513;42.700;23.124;2023-04-08T06:40:14;22.13;;;16.17;;
10717;SDS011;13513;42.700;23.124;2023-04-08T06:42:45;22.00;;;17.23;;
10717;SDS011;13513;42.700;23.124;2023-04-08T06:45:16;22.47;;;16.43;;
10717;SDS011;13513;42.700;23.124;2023-04-08T06:47:47;23.43;;;17.10;;
10717;SDS011;13513;42.700;23.124;2023-04-08T06:50:18;23.90;;;17.73;;
10717;SDS011;13513;42.700;23.124;2023-04-08T06:52:49;23.83;;;17.27;;
10717;SDS011;13513;42.700;23.124;2023-04-08T06:55:19;22.60;;;16.37;;
10717;SDS011;13513;42.700;23.124;2023-04-08T06:57:50;30.07;;;20.37;;
10717;SDS011;13513;42.700;23.124;2023-04-08T07:00:21;23.23;;;17.50;;
10717;SDS011;13513;42.700;23.124;2023-04-08T07:02:52;26.53;;;17.67;;
10717;SDS011;13513;42.700;23.124;2023-04-08T07:05:23;21.37;;;16.97;;
10717;SDS011;13513;42.700;23.124;2023-04-08T07:07:54;23.27;;;16.63;;
10717;SDS011;13513;42.700;23.124;2023-04-08T07:10:25;21.80;;;16.47;;
10717;SDS011;13513;42.700;23.124;2023-04-08T07:12:56;26.57;;;18.27;;
10717;SDS011;13513;42.700;23.124;2023-04-08T07:15:27;22.97;;;17.73;;
10717;SDS011;13513;42.700;23.124;2023-04-08T07:17:57;22.07;;;16.77;;
10717;SDS011;13513;42.700;23.124;2023-04-08T07:20:28;19.63;;;16.07;;
10717;SDS011;13513;42.700;23.124;2023-04-08T07:22:59;25.73;;;16.33;;
10717;SDS011;13513;42.700;23.124;2023-04-08T07:25:31;26.80;;;16.53;;
10717;SDS011;13513;42.700;23.124;2023-04-08T07:28:04;22.27;;;17.03;;
10717;SDS011;13513;42.700;23.124;2023-04-08T07:30:35;27.20;;;18.40;;
10717;SDS011;13513;42.700;23.124;2023-04-08T07:33:06;21.67;;;16.40;;
10717;SDS011;13513;42.700;23.124;2023-04-08T07:35:37;24.23;;;18.07;;
10717;SDS011;13513;42.700;23.124;2023-04-08T07:38:09;23.17;;;17.13;;
10717;SDS011;13513;42.700;23.124;2023-04-08T07:40:40;22.23;;;16.07;;
10717;SDS011;13513;42.700;23.124;2023-04-08T07:43:11;25.00;;;19.20;;
10717;SDS011;13513;42.700;23.124;2023-04-08T07:45:42;23.53;;;17.23;;
10717;SDS011;13513;42.700;23.124;2023-04-08T07:48:13;23.10;;;17.40;;
10717;SDS011;13513;42.700;23.124;2023-04-08T07:50:44;22.53;;;17.20;;
10717;SDS011;13513;42.700;23.124;2023-04-08T07:53:15;24.97;;;18.13;;
10717;SDS011;13513;42.700;23.124;2023-04-08T07:55:46;29.17;;;20.90;;
10717;SDS011;13513;42.700;23.124;2023-04-08T07:58:16;26.20;;;18.17;;
10717;SDS011;13513;42.700;23.124;2023-04-08T08:00:47;26.43;;;18.13;;
10717;SDS011;13513;42.700;23.124;2023-04-08T08:03:19;26.77;;;19.17;;
10717;SDS011;13513;42.700;23.124;2023-04-08T08:05:49;26.40;;;19.73;;
10717;SDS011;13513;42.700;23.124;2023-04-08T08:08:20;25.27;;;19.37;;
10717;SDS011;13513;42.700;23.124;2023-04-08T08:10:51;25.93;;;18.90;;
10717;SDS011;13513;42.700;23.124;2023-04-08T08:13:22;24.83;;;17.93;;
10717;SDS011;13513;42.700;23.124;2023-04-08T08:15:53;23.30;;;16.80;;
10717;SDS011;13513;42.700;23.124;2023-04-08T08:18:23;23.20;;;16.50;;
10717;SDS011;13513;42.700;23.124;2023-04-08T08:21:00;22.57;;;17.93;;
10717;SDS011;13513;42.700;23.124;2023-04-08T08:23:29;24.63;;;16.50;;
10717;SDS011;13513;42.700;23.124;2023-04-08T08:26:04;24.23;;;17.57;;
10717;SDS011;13513;42.700;23.124;2023-04-08T08:28:42;22.57;;;17.37;;
10717;SDS011;13513;42.700;23.124;2023-04-08T08:31:13;23.07;;;17.07;;
10717;SDS011;13513;42.700;23.124;2023-04-08T08:33:44;20.53;;;16.67;;
10717;SDS011;13513;42.700;23.124;2023-04-08T08:36:15;23.73;;;16.50;;
10717;SDS011;13513;42.700;23.124;2023-04-08T08:38:45;21.67;;;15.63;;
10717;SDS011;13513;42.700;23.124;2023-04-08T08:41:16;21.87;;;15.53;;
10717;SDS011;13513;42.700;23.124;2023-04-08T08:43:48;19.80;;;15.23;;
10717;SDS011;13513;42.700;23.124;2023-04-08T08:46:17;21.03;;;15.30;;
10717;SDS011;13513;42.700;23.124;2023-04-08T08:48:48;24.53;;;18.87;;
10717;SDS011;13513;42.700;23.124;2023-04-08T08:51:19;22.43;;;17.63;;
10717;SDS011;13513;42.700;23.124;2023-04-08T08:53:50;26.57;;;18.60;;
10717;SDS011;13513;42.700;23.124;2023-04-08T08:56:21;20.27;;;15.80;;
10717;SDS011;13513;42.700;23.124;2023-04-08T08:58:53;21.13;;;16.93;;
10717;SDS011;13513;42.700;23.124;2023-04-08T09:01:33;22.10;;;16.93;;
10717;SDS011;13513;42.700;23.124;2023-04-08T09:04:07;22.20;;;14.67;;
10717;SDS011;13513;42.700;23.124;2023-04-08T09:06:41;18.97;;;14.30;;
10717;SDS011;13513;42.700;23.124;2023-04-08T09:09:13;20.50;;;16.20;;
10717;SDS011;13513;42.700;23.124;2023-04-08T09:11:44;19.20;;;13.57;;
10717;SDS011;13513;42.700;23.124;2023-04-08T09:14:19;16.20;;;11.80;;
10717;SDS011;13513;42.700;23.124;2023-04-08T09:16:53;17.87;;;13.60;;
10717;SDS011;13513;42.700;23.124;2023-04-08T09:19:24;18.80;;;11.43;;
10717;SDS011;13513;42.700;23.124;2023-04-08T09:22:04;17.60;;;13.03;;
10717;SDS011;13513;42.700;23.124;2023-04-08T09:24:37;18.07;;;12.00;;
10717;SDS011;13513;42.700;23.124;2023-04-08T09:27:09;18.03;;;12.13;;
10717;SDS011;13513;42.700;23.124;2023-04-08T09:29:40;14.25;;;11.28;;
10717;SDS011;13513;42.700;23.124;2023-04-08T09:32:11;15.75;;;12.10;;
10717;SDS011;13513;42.700;23.124;2023-04-08T09:34:42;14.55;;;11.97;;
10717;SDS011;13513;42.700;23.124;2023-04-08T09:37:13;15.43;;;12.20;;
10717;SDS011;13513;42.700;23.124;2023-04-08T09:39:44;14.40;;;11.00;;
10717;SDS011;13513;42.700;23.124;2023-04-08T09:42:15;14.07;;;10.80;;
10717;SDS011;13513;42.700;23.124;2023-04-08T09:44:48;15.85;;;10.63;;
10717;SDS011;13513;42.700;23.124;2023-04-08T09:47:20;19.13;;;12.37;;
10717;SDS011;13513;42.700;23.124;2023-04-08T09:49:54;14.98;;;10.53;;
10717;SDS011;13513;42.700;23.124;2023-04-08T09:52:29;15.55;;;11.38;;
10717;SDS011;13513;42.700;23.124;2023-04-08T09:55:04;17.27;;;11.93;;
10717;SDS011;13513;42.700;23.124;2023-04-08T10:00:23;18.45;;;12.03;;
10717;SDS011;13513;42.700;23.124;2023-04-08T10:02:54;18.27;;;13.08;;
10717;SDS011;13513;42.700;23.124;2023-04-08T10:05:42;14.70;;;11.78;;
10717;SDS011;13513;42.700;23.124;2023-04-08T10:08:14;16.30;;;12.53;;
10717;SDS011;13513;42.700;23.124;2023-04-08T10:10:45;19.65;;;13.30;;
10717;SDS011;13513;42.700;23.124;2023-04-08T10:13:15;16.97;;;13.37;;
10717;SDS011;13513;42.700;23.124;2023-04-08T10:15:46;18.77;;;13.63;;
10717;SDS011;13513;42.700;23.124;2023-04-08T10:20:51;16.63;;;13.40;;
10717;SDS011;13513;42.700;23.124;2023-04-08T10:23:51;18.03;;;12.57;;
10717;SDS011;13513;42.700;23.124;2023-04-08T10:25:54;20.67;;;13.63;;
10717;SDS011;13513;42.700;23.124;2023-04-08T10:28:25;17.53;;;13.40;;
10717;SDS011;13513;42.700;23.124;2023-04-08T10:30:54;19.03;;;12.73;;
10717;SDS011;13513;42.700;23.124;2023-04-08T10:36:10;16.23;;;11.60;;
10717;SDS011;13513;42.700;23.124;2023-04-08T10:38:41;14.37;;;10.17;;
10717;SDS011;13513;42.700;23.124;2023-04-08T10:41:12;16.67;;;10.00;;
10717;SDS011;13513;42.700;23.124;2023-04-08T10:43:43;13.63;;;10.53;;
10717;SDS011;13513;42.700;23.124;2023-04-08T10:46:18;14.70;;;8.40;;
10717;SDS011;13513;42.700;23.124;2023-04-08T10:48:59;18.07;;;11.60;;
10717;SDS011;13513;42.700;23.124;2023-04-08T10:51:30;14.17;;;9.97;;
10717;SDS011;13513;42.700;23.124;2023-04-08T10:54:11;16.30;;;11.90;;
10717;SDS011;13513;42.700;23.124;2023-04-08T10:56:47;15.33;;;11.23;;
10717;SDS011;13513;42.700;23.124;2023-04-08T10:59:28;14.37;;;10.90;;
10717;SDS011;13513;42.700;23.124;2023-04-08T11:02:04;15.33;;;9.37;;
10717;SDS011;13513;42.700;23.124;2023-04-08T11:04:40;12.30;;;9.30;;
10717;SDS011;13513;42.700;23.124;2023-04-08T11:07:07;12.77;;;9.37;;
10717;SDS011;13513;42.700;23.124;2023-04-08T11:09:38;10.90;;;7.60;;
10717;SDS011;13513;42.700;23.124;2023-04-08T11:12:09;13.87;;;10.27;;
10717;SDS011;13513;42.700;23.124;2023-04-08T11:14:40;13.83;;;10.17;;
10717;SDS011;13513;42.700;23.124;2023-04-08T11:17:13;11.60;;;8.77;;
10717;SDS011;13513;42.700;23.124;2023-04-08T11:19:45;15.43;;;10.53;;
10717;SDS011;13513;42.700;23.124;2023-04-08T11:22:16;16.40;;;11.33;;
10717;SDS011;13513;42.700;23.124;2023-04-08T11:24:47;16.30;;;11.27;;
10717;SDS011;13513;42.700;23.124;2023-04-08T11:27:18;14.43;;;11.37;;
10717;SDS011;13513;42.700;23.124;2023-04-08T11:29:50;14.23;;;8.90;;
10717;SDS011;13513;42.700;23.124;2023-04-08T11:32:23;15.47;;;10.13;;
10717;SDS011;13513;42.700;23.124;2023-04-08T11:34:54;15.23;;;11.17;;
10717;SDS011;13513;42.700;23.124;2023-04-08T11:37:25;14.70;;;10.53;;
10717;SDS011;13513;42.700;23.124;2023-04-08T11:39:56;15.37;;;11.03;;
10717;SDS011;13513;42.700;23.124;2023-04-08T11:42:30;14.60;;;11.63;;
10717;SDS011;13513;42.700;23.124;2023-04-08T11:45:01;14.60;;;9.53;;
10717;SDS011;13513;42.700;23.124;2023-04-08T11:47:43;16.40;;;11.60;;
10717;SDS011;13513;42.700;23.124;2023-04-08T11:50:24;21.43;;;12.20;;
10717;SDS011;13513;42.700;23.124;2023-04-08T11:52:52;17.80;;;11.60;;
10717;SDS011;13513;42.700;23.124;2023-04-08T11:57:55;14.87;;;10.03;;
10717;SDS011;13513;42.700;23.124;2023-04-08T12:00:26;15.90;;;11.50;;
10717;SDS011;13513;42.700;23.124;2023-04-08T12:02:57;14.33;;;10.93;;
10717;SDS011;13513;42.700;23.124;2023-04-08T12:05:29;16.67;;;13.13;;
10717;SDS011;13513;42.700;23.124;2023-04-08T12:08:00;16.63;;;12.53;;
10717;SDS011;13513;42.700;23.124;2023-04-08T12:10:30;15.20;;;11.97;;
10717;SDS011;13513;42.700;23.124;2023-04-08T12:13:01;16.90;;;12.80;;
10717;SDS011;13513;42.700;23.124;2023-04-08T12:15:32;16.00;;;12.03;;
10717;SDS011;13513;42.700;23.124;2023-04-08T12:18:03;15.27;;;11.07;;
10717;SDS011;13513;42.700;23.124;2023-04-08T12:20:35;14.00;;;11.27;;
10717;SDS011;13513;42.700;23.124;2023-04-08T12:23:06;16.57;;;10.90;;
10717;SDS011;13513;42.700;23.124;2023-04-08T12:25:37;15.87;;;11.73;;
10717;SDS011;13513;42.700;23.124;2023-04-08T12:28:08;13.50;;;9.80;;
10717;SDS011;13513;42.700;23.124;2023-04-08T12:30:39;11.13;;;9.00;;
10717;SDS011;13513;42.700;23.124;2023-04-08T12:33:10;11.77;;;9.60;;
10717;SDS011;13513;42.700;23.124;2023-04-08T12:35:41;11.70;;;10.10;;
10717;SDS011;13513;42.700;23.124;2023-04-08T12:38:12;16.00;;;11.53;;
10717;SDS011;13513;42.700;23.124;2023-04-08T12:40:44;13.30;;;9.75;;
10717;SDS011;13513;42.700;23.124;2023-04-08T12:43:15;11.97;;;9.45;;
10717;SDS011;13513;42.700;23.124;2023-04-08T12:45:46;11.83;;;9.48;;
10717;SDS011;13513;42.700;23.124;2023-04-08T12:48:16;10.43;;;8.95;;
10717;SDS011;13513;42.700;23.124;2023-04-08T12:50:46;10.10;;;8.30;;
10717;SDS011;13513;42.700;23.124;2023-04-08T12:53:18;13.78;;;10.10;;
10717;SDS011;13513;42.700;23.124;2023-04-08T12:55:47;14.40;;;9.58;;
10717;SDS011;13513;42.700;23.124;2023-04-08T12:58:18;10.58;;;8.80;;
10717;SDS011;13513;42.700;23.124;2023-04-08T13:00:49;13.60;;;9.58;;
10717;SDS011;13513;42.700;23.124;2023-04-08T13:03:20;8.93;;;7.10;;
10717;SDS011;13513;42.700;23.124;2023-04-08T13:05:52;22.13;;;14.27;;
10717;SDS011;13513;42.700;23.124;2023-04-08T13:08:23;9.38;;;7.47;;
10717;SDS011;13513;42.700;23.124;2023-04-08T13:10:53;10.77;;;8.03;;
10717;SDS011;13513;42.700;23.124;2023-04-08T13:13:24;9.77;;;7.50;;
10717;SDS011;13513;42.700;23.124;2023-04-08T13:15:55;11.13;;;8.90;;
10717;SDS011;13513;42.700;23.124;2023-04-08T13:18:26;10.03;;;7.92;;
10717;SDS011;13513;42.700;23.124;2023-04-08T13:20:57;12.43;;;9.50;;
10717;SDS011;13513;42.700;23.124;2023-04-08T13:23:27;16.00;;;10.55;;
10717;SDS011;13513;42.700;23.124;2023-04-08T13:25:58;11.30;;;8.70;;
10717;SDS011;13513;42.700;23.124;2023-04-08T13:28:29;14.20;;;11.13;;
10717;SDS011;13513;42.700;23.124;2023-04-08T13:31:00;12.43;;;9.40;;
10717;SDS011;13513;42.700;23.124;2023-04-08T13:33:31;14.90;;;10.97;;
10717;SDS011;13513;42.700;23.124;2023-04-08T13:36:02;16.83;;;12.67;;
10717;SDS011;13513;42.700;23.124;2023-04-08T13:38:32;15.55;;;11.48;;
10717;SDS011;13513;42.700;23.124;2023-04-08T13:41:03;16.63;;;13.00;;
10717;SDS011;13513;42.700;23.124;2023-04-08T13:43:34;14.77;;;11.70;;
10717;SDS011;13513;42.700;23.124;2023-04-08T13:46:05;14.13;;;11.87;;
10717;SDS011;13513;42.700;23.124;2023-04-08T13:48:36;14.00;;;11.67;;
10717;SDS011;13513;42.700;23.124;2023-04-08T13:51:08;13.50;;;10.53;;
10717;SDS011;13513;42.700;23.124;2023-04-08T13:53:38;15.43;;;12.53;;
10717;SDS011;13513;42.700;23.124;2023-04-08T13:56:09;14.67;;;11.00;;
10717;SDS011;13513;42.700;23.124;2023-04-08T13:58:40;13.38;;;9.43;;
10717;SDS011;13513;42.700;23.124;2023-04-08T14:01:11;12.03;;;9.33;;
10717;SDS011;13513;42.700;23.124;2023-04-08T14:03:42;12.23;;;10.63;;
10717;SDS011;13513;42.700;23.124;2023-04-08T14:06:13;12.13;;;9.90;;
10717;SDS011;13513;42.700;23.124;2023-04-08T14:08:44;10.90;;;9.28;;
10717;SDS011;13513;42.700;23.124;2023-04-08T14:11:15;11.78;;;10.20;;
10717;SDS011;13513;42.700;23.124;2023-04-08T14:13:46;12.27;;;9.23;;
10717;SDS011;13513;42.700;23.124;2023-04-08T14:16:17;12.20;;;9.20;;
10717;SDS011;13513;42.700;23.124;2023-04-08T14:18:52;11.77;;;9.17;;
10717;SDS011;13513;42.700;23.124;2023-04-08T14:21:22;11.38;;;8.65;;
10717;SDS011;13513;42.700;23.124;2023-04-08T14:23:53;11.73;;;9.33;;
10717;SDS011;13513;42.700;23.124;2023-04-08T14:26:24;11.18;;;9.38;;
10717;SDS011;13513;42.700;23.124;2023-04-08T14:28:55;10.43;;;9.18;;
10717;SDS011;13513;42.700;23.124;2023-04-08T14:31:26;12.25;;;9.38;;
10717;SDS011;13513;42.700;23.124;2023-04-08T14:33:56;10.60;;;8.93;;
10717;SDS011;13513;42.700;23.124;2023-04-08T14:36:27;12.13;;;9.53;;
10717;SDS011;13513;42.700;23.124;2023-04-08T14:39:00;13.00;;;10.10;;
10717;SDS011;13513;42.700;23.124;2023-04-08T14:41:31;17.92;;;12.55;;
10717;SDS011;13513;42.700;23.124;2023-04-08T14:44:02;12.58;;;11.25;;
10717;SDS011;13513;42.700;23.124;2023-04-08T14:46:33;11.78;;;9.45;;
10717;SDS011;13513;42.700;23.124;2023-04-08T14:49:04;11.30;;;8.18;;